sensor_id;sensor_type;location;lat;lon;timestamp;pressure;altitude;pressure_sealevel;temperature;humidity
77227;BME280;66234;47.642;19.144;2024-02-15T00:00:46;101039.06;;;6.14;91.22
77227;BME280;66234;47.642;19.144;2024-02-15T00:03:49;101034.59;;;6.15;90.15
77227;BME280;66234;47.642;19.144;2024-02-15T00:06:52;101040.59;;;6.17;90.05
77227;BME280;66234;47.642;19.144;2024-02-15T00:09:55;101039.06;;;6.06;91.17
77227;BME280;66234;47.642;19.144;2024-02-15T00:12:58;101041.41;;;6.17;90.59
77227;BME280;66234;47.642;19.144;2024-02-15T00:16:01;101054.84;;;6.16;91.08
77227;BME280;66234;47.642;19.144;2024-02-15T00:19:04;101051.53;;;6.14;90.99
77227;BME280;66234;47.642;19.144;2024-02-15T00:22:07;101043.53;;;6.06;91.86
77227;BME280;66234;47.642;19.144;2024-02-15T00:25:10;101042.88;;;6.12;91.16
77227;BME280;66234;47.642;19.144;2024-02-15T00:28:13;101048.88;;;6.14;91.00
77227;BME280;66234;47.642;19.144;2024-02-15T00:31:16;101048.03;;;6.13;90.96
77227;BME280;66234;47.642;19.144;2024-02-15T00:34:18;101047.34;;;6.11;91.72
77227;BME280;66234;47.642;19.144;2024-02-15T00:37:21;101046.22;;;6.14;89.76
77227;BME280;66234;47.642;19.144;2024-02-15T00:40:24;101044.41;;;6.22;89.65
77227;BME280;66234;47.642;19.144;2024-02-15T00:43:27;101042.09;;;6.19;89.54
77227;BME280;66234;47.642;19.144;2024-02-15T00:46:30;101040.09;;;6.21;89.90
77227;BME280;66234;47.642;19.144;2024-02-15T00:49:32;101050.06;;;6.19;90.08
77227;BME280;66234;47.642;19.144;2024-02-15T00:52:36;101050.88;;;6.20;90.55
77227;BME280;66234;47.642;19.144;2024-02-15T00:55:38;101043.25;;;6.17;91.89
77227;BME280;66234;47.642;19.144;2024-02-15T00:58:41;101033.59;;;6.16;91.80
77227;BME280;66234;47.642;19.144;2024-02-15T01:01:44;101040.09;;;6.21;91.42
77227;BME280;66234;47.642;19.144;2024-02-15T01:04:47;101039.34;;;6.37;91.19
77227;BME280;66234;47.642;19.144;2024-02-15T01:07:49;101042.31;;;6.34;90.64
77227;BME280;66234;47.642;19.144;2024-02-15T01:10:52;101047.78;;;6.40;90.74
77227;BME280;66234;47.642;19.144;2024-02-15T01:13:55;101046.47;;;6.36;90.13
77227;BME280;66234;47.642;19.144;2024-02-15T01:16:58;101045.66;;;6.44;90.08
77227;BME280;66234;47.642;19.144;2024-02-15T01:20:01;101040.31;;;6.36;90.71
77227;BME280;66234;47.642;19.144;2024-02-15T01:23:04;101033.34;;;6.35;90.91
77227;BME280;66234;47.642;19.144;2024-02-15T01:26:10;101037.81;;;6.26;91.45
77227;BME280;66234;47.642;19.144;2024-02-15T01:29:15;101031.22;;;6.38;91.49
77227;BME280;66234;47.642;19.144;2024-02-15T01:32:17;101031.06;;;6.40;90.39
77227;BME280;66234;47.642;19.144;2024-02-15T01:35:20;101037.50;;;6.37;91.01
77227;BME280;66234;47.642;19.144;2024-02-15T01:38:22;101030.53;;;6.36;90.40
77227;BME280;66234;47.642;19.144;2024-02-15T01:41:25;101032.53;;;6.42;89.93
77227;BME280;66234;47.642;19.144;2024-02-15T01:44:27;101028.59;;;6.46;90.14
77227;BME280;66234;47.642;19.144;2024-02-15T01:47:31;101036.06;;;6.51;88.12
77227;BME280;66234;47.642;19.144;2024-02-15T01:50:33;101045.81;;;6.42;88.80
77227;BME280;66234;47.642;19.144;2024-02-15T01:53:37;101037.84;;;6.42;87.30
77227;BME280;66234;47.642;19.144;2024-02-15T01:56:40;101040.50;;;6.42;88.20
77227;BME280;66234;47.642;19.144;2024-02-15T01:59:43;101031.88;;;6.48;87.82
77227;BME280;66234;47.642;19.144;2024-02-15T02:02:46;101037.19;;;6.48;87.27
77227;BME280;66234;47.642;19.144;2024-02-15T02:05:50;101036.72;;;6.45;86.61
77227;BME280;66234;47.642;19.144;2024-02-15T02:08:52;101040.88;;;6.47;86.01
77227;BME280;66234;47.642;19.144;2024-02-15T02:11:58;101032.22;;;6.45;86.19
77227;BME280;66234;47.642;19.144;2024-02-15T02:15:02;101032.72;;;6.49;85.86
77227;BME280;66234;47.642;19.144;2024-02-15T02:18:04;101019.09;;;6.44;85.94
77227;BME280;66234;47.642;19.144;2024-02-15T02:21:08;101024.56;;;6.42;86.22
77227;BME280;66234;47.642;19.144;2024-02-15T02:24:20;101019.59;;;6.39;86.39
77227;BME280;66234;47.642;19.144;2024-02-15T02:27:24;101015.47;;;6.45;86.58
77227;BME280;66234;47.642;19.144;2024-02-15T02:30:27;101010.00;;;6.46;86.19
77227;BME280;66234;47.642;19.144;2024-02-15T02:33:32;101017.28;;;6.44;86.53
77227;BME280;66234;47.642;19.144;2024-02-15T02:36:36;101014.78;;;6.43;86.99
77227;BME280;66234;47.642;19.144;2024-02-15T02:39:38;101011.63;;;6.39;87.52
77227;BME280;66234;47.642;19.144;2024-02-15T02:42:55;101013.25;;;6.40;87.42
77227;BME280;66234;47.642;19.144;2024-02-15T02:46:03;101017.25;;;6.36;87.67
77227;BME280;66234;47.642;19.144;2024-02-15T02:49:08;101011.94;;;6.36;88.42
77227;BME280;66234;47.642;19.144;2024-02-15T02:52:11;101016.09;;;6.39;88.73
77227;BME280;66234;47.642;19.144;2024-02-15T02:55:14;101026.72;;;6.39;88.08
77227;BME280;66234;47.642;19.144;2024-02-15T02:58:16;101028.19;;;6.33;88.31
77227;BME280;66234;47.642;19.144;2024-02-15T03:01:22;101012.75;;;6.29;88.73
77227;BME280;66234;47.642;19.144;2024-02-15T03:04:27;101023.38;;;6.29;89.30
77227;BME280;66234;47.642;19.144;2024-02-15T03:07:33;101027.50;;;6.31;88.75
77227;BME280;66234;47.642;19.144;2024-02-15T03:10:36;101027.84;;;6.28;89.15
77227;BME280;66234;47.642;19.144;2024-02-15T03:13:38;101019.75;;;6.38;88.96
77227;BME280;66234;47.642;19.144;2024-02-15T03:16:41;101017.78;;;6.48;89.32
77227;BME280;66234;47.642;19.144;2024-02-15T03:19:43;101021.41;;;6.39;89.96
77227;BME280;66234;47.642;19.144;2024-02-15T03:22:57;101020.16;;;6.17;91.41
77227;BME280;66234;47.642;19.144;2024-02-15T03:26:01;101023.13;;;6.06;90.79
77227;BME280;66234;47.642;19.144;2024-02-15T03:29:04;101025.78;;;6.14;90.24
77227;BME280;66234;47.642;19.144;2024-02-15T03:32:06;101019.19;;;6.18;90.51
77227;BME280;66234;47.642;19.144;2024-02-15T03:35:09;101026.94;;;6.12;90.29
77227;BME280;66234;47.642;19.144;2024-02-15T03:38:11;101021.47;;;6.13;90.79
77227;BME280;66234;47.642;19.144;2024-02-15T03:41:14;101028.56;;;5.97;91.64
77227;BME280;66234;47.642;19.144;2024-02-15T03:44:18;101034.44;;;5.83;92.42
77227;BME280;66234;47.642;19.144;2024-02-15T03:47:20;101038.97;;;5.73;92.98
77227;BME280;66234;47.642;19.144;2024-02-15T03:50:23;101037.31;;;5.72;93.73
77227;BME280;66234;47.642;19.144;2024-02-15T03:53:26;101030.63;;;5.85;93.40
77227;BME280;66234;47.642;19.144;2024-02-15T03:56:31;101031.69;;;6.00;92.60
77227;BME280;66234;47.642;19.144;2024-02-15T03:59:34;101034.28;;;5.84;93.68
77227;BME280;66234;47.642;19.144;2024-02-15T04:02:37;101039.13;;;5.89;94.17
77227;BME280;66234;47.642;19.144;2024-02-15T04:05:43;101029.84;;;5.93;93.84
77227;BME280;66234;47.642;19.144;2024-02-15T04:08:46;101034.44;;;5.83;94.66
77227;BME280;66234;47.642;19.144;2024-02-15T04:11:49;101040.03;;;5.80;94.81
77227;BME280;66234;47.642;19.144;2024-02-15T04:14:56;101030.06;;;5.74;95.55
77227;BME280;66234;47.642;19.144;2024-02-15T04:18:03;101036.00;;;5.76;95.73
77227;BME280;66234;47.642;19.144;2024-02-15T04:21:05;101028.59;;;5.79;94.94
77227;BME280;66234;47.642;19.144;2024-02-15T04:24:09;101025.69;;;5.90;94.79
77227;BME280;66234;47.642;19.144;2024-02-15T04:27:12;101035.84;;;5.95;94.29
77227;BME280;66234;47.642;19.144;2024-02-15T04:30:16;101020.34;;;5.82;95.03
77227;BME280;66234;47.642;19.144;2024-02-15T04:33:19;101017.53;;;5.84;95.61
77227;BME280;66234;47.642;19.144;2024-02-15T04:36:22;101020.53;;;5.89;95.23
77227;BME280;66234;47.642;19.144;2024-02-15T04:39:28;101020.34;;;5.82;94.70
77227;BME280;66234;47.642;19.144;2024-02-15T04:42:32;101020.84;;;5.86;94.39
77227;BME280;66234;47.642;19.144;2024-02-15T04:45:36;101023.56;;;6.02;93.66
77227;BME280;66234;47.642;19.144;2024-02-15T04:48:39;101026.38;;;6.00;93.00
77227;BME280;66234;47.642;19.144;2024-02-15T04:51:44;101026.44;;;6.08;92.24
77227;BME280;66234;47.642;19.144;2024-02-15T04:54:47;101026.88;;;5.96;92.64
77227;BME280;66234;47.642;19.144;2024-02-15T04:57:50;101031.91;;;6.07;92.35
77227;BME280;66234;47.642;19.144;2024-02-15T05:00:57;101026.94;;;6.12;91.51
77227;BME280;66234;47.642;19.144;2024-02-15T05:04:02;101032.22;;;6.04;92.55
77227;BME280;66234;47.642;19.144;2024-02-15T05:07:10;101030.56;;;6.03;91.93
77227;BME280;66234;47.642;19.144;2024-02-15T05:10:13;101029.09;;;6.08;91.57
77227;BME280;66234;47.642;19.144;2024-02-15T05:13:16;101043.19;;;6.09;92.14
77227;BME280;66234;47.642;19.144;2024-02-15T05:16:20;101045.81;;;6.01;91.42
77227;BME280;66234;47.642;19.144;2024-02-15T05:19:22;101034.19;;;5.94;92.30
77227;BME280;66234;47.642;19.144;2024-02-15T05:22:26;101037.47;;;5.96;92.36
77227;BME280;66234;47.642;19.144;2024-02-15T05:25:31;101031.09;;;6.06;92.12
77227;BME280;66234;47.642;19.144;2024-02-15T05:28:36;101039.88;;;6.07;91.87
77227;BME280;66234;47.642;19.144;2024-02-15T05:31:38;101048.03;;;6.13;91.50
77227;BME280;66234;47.642;19.144;2024-02-15T05:34:42;101062.16;;;6.14;90.49
77227;BME280;66234;47.642;19.144;2024-02-15T05:37:45;101066.09;;;6.10;91.02
77227;BME280;66234;47.642;19.144;2024-02-15T05:40:50;101054.66;;;6.09;91.32
77227;BME280;66234;47.642;19.144;2024-02-15T05:43:53;101059.50;;;6.14;91.64
77227;BME280;66234;47.642;19.144;2024-02-15T05:46:55;101065.84;;;6.29;90.67
77227;BME280;66234;47.642;19.144;2024-02-15T05:49:58;101062.66;;;6.17;91.06
77227;BME280;66234;47.642;19.144;2024-02-15T05:53:01;101073.59;;;6.14;91.85
77227;BME280;66234;47.642;19.144;2024-02-15T05:56:08;101064.44;;;6.09;91.60
77227;BME280;66234;47.642;19.144;2024-02-15T05:59:11;101066.63;;;6.13;91.67
77227;BME280;66234;47.642;19.144;2024-02-15T06:02:13;101085.03;;;6.15;91.61
77227;BME280;66234;47.642;19.144;2024-02-15T06:05:16;101081.88;;;6.11;91.92
77227;BME280;66234;47.642;19.144;2024-02-15T06:08:19;101081.53;;;6.14;91.79
77227;BME280;66234;47.642;19.144;2024-02-15T06:11:25;101086.84;;;6.06;92.63
77227;BME280;66234;47.642;19.144;2024-02-15T06:14:27;101085.44;;;6.28;92.14
77227;BME280;66234;47.642;19.144;2024-02-15T06:17:30;101087.94;;;6.29;91.79
77227;BME280;66234;47.642;19.144;2024-02-15T06:20:34;101095.28;;;6.35;92.06
77227;BME280;66234;47.642;19.144;2024-02-15T06:23:39;101097.25;;;6.33;91.84
77227;BME280;66234;47.642;19.144;2024-02-15T06:26:42;101094.91;;;6.30;92.69
77227;BME280;66234;47.642;19.144;2024-02-15T06:29:45;101097.28;;;6.41;91.74
77227;BME280;66234;47.642;19.144;2024-02-15T06:33:06;101107.44;;;6.46;91.57
77227;BME280;66234;47.642;19.144;2024-02-15T06:36:27;101102.94;;;6.38;91.66
77227;BME280;66234;47.642;19.144;2024-02-15T06:39:48;101110.41;;;6.43;92.09
77227;BME280;66234;47.642;19.144;2024-02-15T06:42:52;101113.28;;;6.49;92.21
77227;BME280;66234;47.642;19.144;2024-02-15T06:45:54;101114.41;;;6.47;92.03
77227;BME280;66234;47.642;19.144;2024-02-15T06:48:57;101115.44;;;6.54;92.25
77227;BME280;66234;47.642;19.144;2024-02-15T06:52:01;101117.66;;;6.66;91.17
77227;BME280;66234;47.642;19.144;2024-02-15T06:55:08;101115.50;;;6.78;90.90
77227;BME280;66234;47.642;19.144;2024-02-15T06:58:11;101120.47;;;6.73;90.86
77227;BME280;66234;47.642;19.144;2024-02-15T07:01:16;101121.69;;;6.95;89.71
77227;BME280;66234;47.642;19.144;2024-02-15T07:04:20;101130.03;;;7.00;88.61
77227;BME280;66234;47.642;19.144;2024-02-15T07:07:23;101129.34;;;6.90;89.86
77227;BME280;66234;47.642;19.144;2024-02-15T07:10:26;101130.00;;;6.92;89.49
77227;BME280;66234;47.642;19.144;2024-02-15T07:13:29;101126.84;;;6.88;89.48
77227;BME280;66234;47.642;19.144;2024-02-15T07:16:32;101139.78;;;6.83;90.26
77227;BME280;66234;47.642;19.144;2024-02-15T07:19:36;101131.84;;;6.91;90.46
77227;BME280;66234;47.642;19.144;2024-02-15T07:22:40;101138.81;;;6.92;90.49
77227;BME280;66234;47.642;19.144;2024-02-15T07:25:43;101136.72;;;7.20;89.33
77227;BME280;66234;47.642;19.144;2024-02-15T07:28:47;101136.84;;;7.10;88.97
77227;BME280;66234;47.642;19.144;2024-02-15T07:31:56;101140.03;;;7.14;89.63
77227;BME280;66234;47.642;19.144;2024-02-15T07:34:59;101150.06;;;7.44;87.79
77227;BME280;66234;47.642;19.144;2024-02-15T07:38:02;101147.72;;;7.57;87.03
77227;BME280;66234;47.642;19.144;2024-02-15T07:41:07;101145.72;;;7.51;86.42
77227;BME280;66234;47.642;19.144;2024-02-15T07:44:10;101147.56;;;7.42;87.51
77227;BME280;66234;47.642;19.144;2024-02-15T07:47:13;101146.03;;;7.32;87.04
77227;BME280;66234;47.642;19.144;2024-02-15T07:50:17;101140.91;;;7.38;87.22
77227;BME280;66234;47.642;19.144;2024-02-15T07:53:23;101141.75;;;7.39;87.20
77227;BME280;66234;47.642;19.144;2024-02-15T07:56:27;101131.41;;;7.52;86.01
77227;BME280;66234;47.642;19.144;2024-02-15T07:59:29;101138.28;;;7.70;84.28
77227;BME280;66234;47.642;19.144;2024-02-15T08:02:32;101131.78;;;7.73;84.57
77227;BME280;66234;47.642;19.144;2024-02-15T08:05:36;101135.25;;;7.81;84.33
77227;BME280;66234;47.642;19.144;2024-02-15T08:08:45;101127.75;;;7.69;85.06
77227;BME280;66234;47.642;19.144;2024-02-15T08:11:51;101125.59;;;7.64;85.76
77227;BME280;66234;47.642;19.144;2024-02-15T08:14:53;101133.59;;;7.72;86.09
77227;BME280;66234;47.642;19.144;2024-02-15T08:17:56;101131.09;;;7.79;84.12
77227;BME280;66234;47.642;19.144;2024-02-15T08:20:59;101129.41;;;8.10;81.92
77227;BME280;66234;47.642;19.144;2024-02-15T08:24:03;101128.91;;;8.22;80.95
77227;BME280;66234;47.642;19.144;2024-02-15T08:27:12;101135.53;;;8.18;82.15
77227;BME280;66234;47.642;19.144;2024-02-15T08:30:16;101138.38;;;8.25;81.06
77227;BME280;66234;47.642;19.144;2024-02-15T08:33:22;101129.66;;;8.47;79.81
77227;BME280;66234;47.642;19.144;2024-02-15T08:36:26;101128.63;;;8.56;80.13
77227;BME280;66234;47.642;19.144;2024-02-15T08:39:29;101125.56;;;8.67;79.62
77227;BME280;66234;47.642;19.144;2024-02-15T08:42:32;101134.25;;;8.69;79.29
77227;BME280;66234;47.642;19.144;2024-02-15T08:45:35;101138.00;;;8.44;81.26
77227;BME280;66234;47.642;19.144;2024-02-15T08:48:38;101133.94;;;8.56;80.43
77227;BME280;66234;47.642;19.144;2024-02-15T08:51:41;101142.53;;;8.74;80.06
77227;BME280;66234;47.642;19.144;2024-02-15T08:54:44;101147.91;;;9.05;77.79
77227;BME280;66234;47.642;19.144;2024-02-15T08:57:47;101152.88;;;9.08;77.89
77227;BME280;66234;47.642;19.144;2024-02-15T09:00:50;101142.09;;;8.93;76.88
77227;BME280;66234;47.642;19.144;2024-02-15T09:03:52;101148.28;;;8.94;77.59
77227;BME280;66234;47.642;19.144;2024-02-15T09:06:55;101137.81;;;8.84;77.46
77227;BME280;66234;47.642;19.144;2024-02-15T09:09:59;101134.09;;;8.93;77.28
77227;BME280;66234;47.642;19.144;2024-02-15T09:13:02;101141.63;;;8.90;76.31
77227;BME280;66234;47.642;19.144;2024-02-15T09:16:08;101140.47;;;8.92;77.23
77227;BME280;66234;47.642;19.144;2024-02-15T09:19:11;101148.16;;;9.10;76.39
77227;BME280;66234;47.642;19.144;2024-02-15T09:22:14;101148.06;;;9.03;75.65
77227;BME280;66234;47.642;19.144;2024-02-15T09:25:17;101148.06;;;9.03;75.91
77227;BME280;66234;47.642;19.144;2024-02-15T09:28:20;101137.19;;;9.35;73.91
77227;BME280;66234;47.642;19.144;2024-02-15T09:31:26;101141.44;;;9.44;74.17
77227;BME280;66234;47.642;19.144;2024-02-15T09:34:28;101142.63;;;9.64;71.73
77227;BME280;66234;47.642;19.144;2024-02-15T09:37:31;101142.28;;;9.45;72.81
77227;BME280;66234;47.642;19.144;2024-02-15T09:40:35;101152.19;;;9.59;72.17
77227;BME280;66234;47.642;19.144;2024-02-15T09:43:38;101150.88;;;9.55;71.87
77227;BME280;66234;47.642;19.144;2024-02-15T09:46:43;101148.91;;;9.49;72.25
77227;BME280;66234;47.642;19.144;2024-02-15T09:49:49;101144.44;;;9.49;72.60
77227;BME280;66234;47.642;19.144;2024-02-15T09:52:53;101145.41;;;9.71;71.10
77227;BME280;66234;47.642;19.144;2024-02-15T09:56:04;101146.47;;;9.84;69.71
77227;BME280;66234;47.642;19.144;2024-02-15T09:59:08;101146.81;;;9.81;69.71
77227;BME280;66234;47.642;19.144;2024-02-15T10:02:12;101149.53;;;9.59;69.91
77227;BME280;66234;47.642;19.144;2024-02-15T10:05:17;101146.56;;;9.91;69.74
77227;BME280;66234;47.642;19.144;2024-02-15T10:08:20;101148.13;;;9.85;68.78
77227;BME280;66234;47.642;19.144;2024-02-15T10:11:24;101146.28;;;9.86;69.61
77227;BME280;66234;47.642;19.144;2024-02-15T10:14:30;101148.03;;;10.31;67.83
77227;BME280;66234;47.642;19.144;2024-02-15T10:17:33;101135.16;;;10.49;66.40
77227;BME280;66234;47.642;19.144;2024-02-15T10:20:41;101133.03;;;10.30;67.06
77227;BME280;66234;47.642;19.144;2024-02-15T10:23:47;101134.06;;;10.29;67.21
77227;BME280;66234;47.642;19.144;2024-02-15T10:27:07;101131.47;;;10.21;68.85
77227;BME280;66234;47.642;19.144;2024-02-15T10:30:20;101125.19;;;10.57;66.57
77227;BME280;66234;47.642;19.144;2024-02-15T10:33:26;101130.81;;;10.62;66.09
77227;BME280;66234;47.642;19.144;2024-02-15T10:36:33;101131.09;;;10.67;65.93
77227;BME280;66234;47.642;19.144;2024-02-15T10:39:36;101129.31;;;10.89;65.65
77227;BME280;66234;47.642;19.144;2024-02-15T10:42:40;101125.22;;;10.93;65.26
77227;BME280;66234;47.642;19.144;2024-02-15T10:45:45;101121.13;;;10.97;65.01
77227;BME280;66234;47.642;19.144;2024-02-15T10:48:51;101116.34;;;10.92;64.64
77227;BME280;66234;47.642;19.144;2024-02-15T10:51:56;101121.00;;;11.19;65.18
77227;BME280;66234;47.642;19.144;2024-02-15T10:55:03;101127.66;;;10.73;65.41
77227;BME280;66234;47.642;19.144;2024-02-15T10:58:07;101122.53;;;10.93;64.56
77227;BME280;66234;47.642;19.144;2024-02-15T11:01:12;101119.47;;;11.31;63.26
77227;BME280;66234;47.642;19.144;2024-02-15T11:04:20;101119.63;;;11.44;62.89
77227;BME280;66234;47.642;19.144;2024-02-15T11:07:25;101128.09;;;11.12;63.01
77227;BME280;66234;47.642;19.144;2024-02-15T11:10:37;101123.47;;;11.42;62.57
77227;BME280;66234;47.642;19.144;2024-02-15T11:13:40;101115.63;;;11.40;61.97
77227;BME280;66234;47.642;19.144;2024-02-15T11:16:45;101110.03;;;11.35;62.33
77227;BME280;66234;47.642;19.144;2024-02-15T11:19:48;101102.13;;;11.27;62.38
77227;BME280;66234;47.642;19.144;2024-02-15T11:22:59;101103.72;;;11.22;63.55
77227;BME280;66234;47.642;19.144;2024-02-15T11:26:02;101102.78;;;11.50;62.31
77227;BME280;66234;47.642;19.144;2024-02-15T11:29:05;101109.03;;;11.79;61.08
77227;BME280;66234;47.642;19.144;2024-02-15T11:32:08;101115.50;;;11.91;60.06
77227;BME280;66234;47.642;19.144;2024-02-15T11:35:12;101109.69;;;11.87;60.17
77227;BME280;66234;47.642;19.144;2024-02-15T11:38:28;101103.66;;;11.79;59.85
77227;BME280;66234;47.642;19.144;2024-02-15T11:41:31;101104.78;;;11.91;60.65
77227;BME280;66234;47.642;19.144;2024-02-15T11:44:33;101107.88;;;11.88;59.95
77227;BME280;66234;47.642;19.144;2024-02-15T11:47:39;101109.56;;;11.95;60.21
77227;BME280;66234;47.642;19.144;2024-02-15T11:50:46;101102.56;;;11.94;59.56
77227;BME280;66234;47.642;19.144;2024-02-15T11:54:01;101091.97;;;11.86;60.00
77227;BME280;66234;47.642;19.144;2024-02-15T11:57:08;101097.03;;;12.02;59.43
77227;BME280;66234;47.642;19.144;2024-02-15T12:00:23;101093.00;;;12.13;60.81
77227;BME280;66234;47.642;19.144;2024-02-15T12:03:44;101093.94;;;12.39;59.60
77227;BME280;66234;47.642;19.144;2024-02-15T12:07:10;101090.50;;;12.11;60.16
77227;BME280;66234;47.642;19.144;2024-02-15T12:10:31;101094.50;;;12.28;60.02
77227;BME280;66234;47.642;19.144;2024-02-15T12:13:53;101083.69;;;12.49;59.02
77227;BME280;66234;47.642;19.144;2024-02-15T12:17:14;101084.31;;;12.45;59.45
77227;BME280;66234;47.642;19.144;2024-02-15T12:20:35;101094.19;;;12.10;60.32
77227;BME280;66234;47.642;19.144;2024-02-15T12:23:38;101085.56;;;12.15;59.61
77227;BME280;66234;47.642;19.144;2024-02-15T12:26:41;101083.56;;;12.23;60.49
77227;BME280;66234;47.642;19.144;2024-02-15T12:29:44;101077.97;;;12.18;59.53
77227;BME280;66234;47.642;19.144;2024-02-15T12:32:49;101070.63;;;12.33;60.08
77227;BME280;66234;47.642;19.144;2024-02-15T12:36:06;101067.38;;;12.44;59.17
77227;BME280;66234;47.642;19.144;2024-02-15T12:39:09;101064.25;;;12.34;59.84
77227;BME280;66234;47.642;19.144;2024-02-15T12:42:17;101067.34;;;12.85;60.45
77227;BME280;66234;47.642;19.144;2024-02-15T12:45:20;101058.63;;;12.76;59.31
77227;BME280;66234;47.642;19.144;2024-02-15T12:48:24;101057.81;;;12.82;60.00
77227;BME280;66234;47.642;19.144;2024-02-15T12:51:30;101053.56;;;13.07;59.35
77227;BME280;66234;47.642;19.144;2024-02-15T12:54:36;101053.31;;;12.89;59.19
77227;BME280;66234;47.642;19.144;2024-02-15T12:57:50;101053.19;;;13.04;58.08
77227;BME280;66234;47.642;19.144;2024-02-15T13:01:01;101046.06;;;12.83;58.77
77227;BME280;66234;47.642;19.144;2024-02-15T13:04:09;101045.59;;;12.67;59.27
77227;BME280;66234;47.642;19.144;2024-02-15T13:07:23;101040.25;;;12.67;58.79
77227;BME280;66234;47.642;19.144;2024-02-15T13:10:28;101039.16;;;12.48;59.79
77227;BME280;66234;47.642;19.144;2024-02-15T13:13:35;101034.69;;;12.68;59.78
77227;BME280;66234;47.642;19.144;2024-02-15T13:16:40;101047.19;;;12.48;60.41
77227;BME280;66234;47.642;19.144;2024-02-15T13:19:54;101037.03;;;12.44;59.61
77227;BME280;66234;47.642;19.144;2024-02-15T13:23:16;101033.03;;;12.27;60.08
77227;BME280;66234;47.642;19.144;2024-02-15T13:26:54;101037.84;;;11.97;61.25
77227;BME280;66234;47.642;19.144;2024-02-15T13:30:22;101032.38;;;12.18;60.30
77227;BME280;66234;47.642;19.144;2024-02-15T13:34:15;101033.56;;;12.09;60.36
77227;BME280;66234;47.642;19.144;2024-02-15T13:37:33;101033.22;;;12.25;60.75
77227;BME280;66234;47.642;19.144;2024-02-15T13:41:02;101026.44;;;12.23;60.35
77227;BME280;66234;47.642;19.144;2024-02-15T13:44:15;101025.72;;;12.08;60.90
77227;BME280;66234;47.642;19.144;2024-02-15T13:47:31;101027.84;;;12.19;60.27
77227;BME280;66234;47.642;19.144;2024-02-15T13:50:37;101023.94;;;12.21;59.80
77227;BME280;66234;47.642;19.144;2024-02-15T13:53:55;101018.78;;;12.20;59.97
77227;BME280;66234;47.642;19.144;2024-02-15T13:57:13;101015.34;;;12.32;60.97
77227;BME280;66234;47.642;19.144;2024-02-15T14:00:25;101012.13;;;12.56;59.57
77227;BME280;66234;47.642;19.144;2024-02-15T14:03:37;101023.63;;;12.44;60.01
77227;BME280;66234;47.642;19.144;2024-02-15T14:06:40;101023.34;;;12.26;59.07
77227;BME280;66234;47.642;19.144;2024-02-15T14:09:43;101026.19;;;12.11;59.56
77227;BME280;66234;47.642;19.144;2024-02-15T14:12:51;101022.16;;;11.94;60.88
77227;BME280;66234;47.642;19.144;2024-02-15T14:16:08;101015.59;;;12.03;61.81
77227;BME280;66234;47.642;19.144;2024-02-15T14:19:26;101018.59;;;11.87;61.08
77227;BME280;66234;47.642;19.144;2024-02-15T14:22:53;101013.38;;;11.79;61.52
77227;BME280;66234;47.642;19.144;2024-02-15T14:26:04;101022.16;;;12.01;61.14
77227;BME280;66234;47.642;19.144;2024-02-15T14:29:32;101018.41;;;11.89;61.42
77227;BME280;66234;47.642;19.144;2024-02-15T14:32:48;101013.00;;;11.82;61.33
77227;BME280;66234;47.642;19.144;2024-02-15T14:36:12;101006.44;;;11.85;60.64
77227;BME280;66234;47.642;19.144;2024-02-15T14:39:23;101014.06;;;11.88;60.68
77227;BME280;66234;47.642;19.144;2024-02-15T14:42:29;101021.03;;;11.82;61.78
77227;BME280;66234;47.642;19.144;2024-02-15T14:45:33;101020.13;;;11.69;61.36
77227;BME280;66234;47.642;19.144;2024-02-15T14:48:37;101018.31;;;11.54;62.28
77227;BME280;66234;47.642;19.144;2024-02-15T14:51:43;101024.78;;;11.60;63.01
77227;BME280;66234;47.642;19.144;2024-02-15T14:54:46;101019.88;;;11.42;63.35
77227;BME280;66234;47.642;19.144;2024-02-15T14:57:50;101015.63;;;11.27;64.23
77227;BME280;66234;47.642;19.144;2024-02-15T15:00:53;101009.06;;;11.29;64.27
77227;BME280;66234;47.642;19.144;2024-02-15T15:03:58;101012.09;;;11.47;63.89
77227;BME280;66234;47.642;19.144;2024-02-15T15:07:05;101015.06;;;11.31;64.57
77227;BME280;66234;47.642;19.144;2024-02-15T15:10:26;101014.38;;;11.23;65.54
77227;BME280;66234;47.642;19.144;2024-02-15T15:13:48;101010.13;;;11.07;65.88
77227;BME280;66234;47.642;19.144;2024-02-15T15:16:50;101012.16;;;11.05;65.77
77227;BME280;66234;47.642;19.144;2024-02-15T15:19:53;101006.97;;;11.04;65.94
77227;BME280;66234;47.642;19.144;2024-02-15T15:22:56;101001.25;;;11.07;65.31
77227;BME280;66234;47.642;19.144;2024-02-15T15:26:00;101008.56;;;10.98;67.24
77227;BME280;66234;47.642;19.144;2024-02-15T15:29:03;101003.59;;;10.95;66.18
77227;BME280;66234;47.642;19.144;2024-02-15T15:32:07;101011.50;;;10.82;67.07
77227;BME280;66234;47.642;19.144;2024-02-15T15:35:10;101013.59;;;10.87;66.51
77227;BME280;66234;47.642;19.144;2024-02-15T15:38:15;101009.41;;;10.78;66.63
77227;BME280;66234;47.642;19.144;2024-02-15T15:41:18;101015.13;;;10.75;66.23
77227;BME280;66234;47.642;19.144;2024-02-15T15:44:20;101011.16;;;10.71;66.59
77227;BME280;66234;47.642;19.144;2024-02-15T15:47:25;101013.72;;;10.58;66.90
77227;BME280;66234;47.642;19.144;2024-02-15T15:50:28;101010.50;;;10.48;67.26
77227;BME280;66234;47.642;19.144;2024-02-15T15:53:31;101016.78;;;10.40;67.07
77227;BME280;66234;47.642;19.144;2024-02-15T15:56:34;101020.00;;;10.36;68.01
77227;BME280;66234;47.642;19.144;2024-02-15T15:59:37;101022.22;;;10.32;67.88
77227;BME280;66234;47.642;19.144;2024-02-15T16:02:40;101020.47;;;10.25;68.70
77227;BME280;66234;47.642;19.144;2024-02-15T16:05:48;101016.63;;;10.13;69.17